Time;durP1;ratioP1;P1;durP2;ratioP2;P2;SDS_P1;SDS_P2;PMS_P1;PMS_P2;Temp;Humidity;BMP_temperature;BMP_pressure;BME280_temperature;BME280_humidity;BME280_pressure;Samples;Min_cycle;Max_cycle;Signal;HPM_P1;HPM_P2
2023/12/18 00:01:41;;;;;;;13.68;11.00;;;2.50;99.90;;;;;;5051883;28;20302;-67
2023/12/18 00:04:08;;;;;;;19.00;11.20;;;2.50;99.90;;;;;;5051438;28;20252;-67
2023/12/18 00:06:36;;;;;;;14.10;10.45;;;2.40;99.90;;;;;;5051572;28;20494;-67
2023/12/18 00:09:04;;;;;;;14.30;10.15;;;2.40;99.90;;;;;;5051436;28;20287;-67
2023/12/18 00:11:33;;;;;;;17.92;11.07;;;2.40;99.90;;;;;;5043302;28;20289;-67
2023/12/18 00:14:02;;;;;;;17.02;11.95;;;2.50;99.90;;;;;;5051078;28;20206;-67
2023/12/18 00:16:30;;;;;;;14.48;11.38;;;2.50;99.90;;;;;;5051207;28;20715;-67
2023/12/18 00:18:58;;;;;;;16.50;12.38;;;2.50;99.90;;;;;;5051100;28;20235;-67
2023/12/18 00:21:26;;;;;;;17.00;12.38;;;2.50;99.90;;;;;;5051363;28;20260;-67
2023/12/18 00:23:54;;;;;;;28.42;11.85;;;2.50;99.90;;;;;;5051071;28;20225;-67
2023/12/18 00:26:23;;;;;;;18.50;12.15;;;2.50;99.90;;;;;;5050685;28;20260;-67
2023/12/18 00:28:52;;;;;;;20.40;12.68;;;2.40;99.90;;;;;;5050507;28;20659;-67
2023/12/18 00:31:20;;;;;;;23.80;13.10;;;2.40;99.90;;;;;;5051305;28;20238;-67
2023/12/18 00:33:48;;;;;;;17.95;11.93;;;2.50;99.90;;;;;;5051103;28;20216;-67
2023/12/18 00:36:16;;;;;;;20.70;13.02;;;2.50;99.90;;;;;;5050920;28;20202;-67
2023/12/18 00:38:43;;;;;;;18.92;12.98;;;2.50;99.90;;;;;;5051516;28;20208;-67
2023/12/18 00:41:11;;;;;;;22.48;13.45;;;2.50;99.90;;;;;;5051104;28;20248;-67
2023/12/18 00:43:39;;;;;;;20.48;13.57;;;2.50;99.90;;;;;;5051486;28;20202;-67
2023/12/18 00:46:08;;;;;;;26.55;13.10;;;2.60;99.90;;;;;;5050811;28;20202;-67
2023/12/18 00:48:36;;;;;;;22.10;14.43;;;2.60;99.90;;;;;;5051041;28;20260;-67
2023/12/18 00:51:05;;;;;;;44.92;13.98;;;2.60;99.90;;;;;;5051036;28;20520;-67
2023/12/18 00:53:32;;;;;;;41.28;15.02;;;2.50;99.90;;;;;;5051013;28;20200;-67
2023/12/18 00:56:00;;;;;;;24.10;15.27;;;2.50;99.90;;;;;;5050805;28;20202;-67
2023/12/18 00:58:28;;;;;;;26.80;14.77;;;2.50;99.90;;;;;;5050818;28;20220;-67
2023/12/18 01:00:57;;;;;;;41.20;16.10;;;2.50;99.90;;;;;;5050953;28;20228;-67
2023/12/18 01:03:26;;;;;;;29.38;15.40;;;2.40;99.90;;;;;;5050748;28;20684;-67
2023/12/18 01:05:54;;;;;;;24.15;14.95;;;2.40;99.90;;;;;;5050430;28;20206;-67
2023/12/18 01:08:22;;;;;;;29.10;16.25;;;2.40;99.90;;;;;;5050868;28;20257;-67
2023/12/18 01:10:50;;;;;;;29.15;16.35;;;2.40;99.90;;;;;;5050716;28;20206;-67
2023/12/18 01:13:17;;;;;;;30.02;15.85;;;2.40;99.90;;;;;;5050762;28;20283;-67
2023/12/18 01:15:45;;;;;;;27.70;16.10;;;2.40;99.90;;;;;;5050658;28;20295;-67
2023/12/18 01:18:13;;;;;;;31.58;16.95;;;2.50;99.90;;;;;;5050640;28;20254;-67
2023/12/18 01:23:28;;;;;;;32.85;16.23;;;2.50;99.90;;;;;;5050564;28;20600;-67
2023/12/18 01:25:56;;;;;;;27.08;15.57;;;2.40;99.90;;;;;;5050482;28;20244;-67
2023/12/18 01:28:23;;;;;;;25.45;15.30;;;2.50;99.90;;;;;;5050666;28;20267;-67
2023/12/18 01:30:51;;;;;;;34.28;15.02;;;2.50;99.90;;;;;;5050410;28;20249;-67
2023/12/18 01:33:19;;;;;;;28.48;15.07;;;2.50;99.90;;;;;;5050792;28;20198;-67
2023/12/18 01:35:49;;;;;;;31.73;14.10;;;2.40;99.90;;;;;;5050471;28;20206;-67
2023/12/18 01:38:16;;;;;;;23.17;14.75;;;2.40;99.90;;;;;;5050776;28;20230;-67
2023/12/18 01:40:45;;;;;;;31.67;14.95;;;2.40;99.90;;;;;;5054264;28;20198;-67
2023/12/18 01:43:23;;;;;;;39.17;15.52;;;2.30;99.90;;;;;;5054171;28;20218;-67
2023/12/18 01:45:52;;;;;;;42.03;14.75;;;2.30;99.90;;;;;;5054122;28;20264;-67
2023/12/18 01:48:20;;;;;;;35.70;15.35;;;2.40;99.90;;;;;;5054070;28;20218;-67
2023/12/18 01:50:50;;;;;;;32.78;16.25;;;2.40;99.90;;;;;;5054254;28;20198;-67
2023/12/18 01:53:17;;;;;;;31.85;14.88;;;2.40;99.90;;;;;;5054036;28;20680;-67
2023/12/18 01:55:44;;;;;;;30.38;16.77;;;2.40;99.90;;;;;;5053638;28;20205;-67
2023/12/18 01:58:13;;;;;;;33.42;16.40;;;2.40;99.90;;;;;;5054232;28;20218;-67
2023/12/18 02:00:41;;;;;;;32.45;17.77;;;2.40;99.90;;;;;;5054228;28;20584;-67
2023/12/18 02:03:09;;;;;;;27.00;16.52;;;2.40;99.90;;;;;;5053793;28;20226;-67
2023/12/18 02:05:38;;;;;;;47.13;17.63;;;2.40;99.90;;;;;;5053850;28;20260;-67
2023/12/18 02:08:07;;;;;;;34.15;17.65;;;2.50;99.90;;;;;;5053701;28;20305;-67
2023/12/18 02:10:35;;;;;;;33.72;17.55;;;2.40;99.90;;;;;;5053256;28;20649;-67
2023/12/18 02:13:04;;;;;;;52.88;19.65;;;2.40;99.90;;;;;;5053776;28;20668;-67
2023/12/18 02:15:31;;;;;;;63.22;20.38;;;2.40;99.90;;;;;;5053338;28;20217;-67
2023/12/18 02:17:59;;;;;;;50.63;19.67;;;2.40;99.90;;;;;;5053518;28;20280;-67
2023/12/18 02:20:27;;;;;;;34.55;18.73;;;2.40;99.90;;;;;;5053287;28;20652;-67
2023/12/18 02:22:56;;;;;;;33.78;19.58;;;2.40;99.90;;;;;;5053399;28;20222;-67
2023/12/18 02:25:24;;;;;;;35.63;18.48;;;2.40;99.90;;;;;;5044238;28;20238;-67
2023/12/18 02:27:52;;;;;;;50.80;18.33;;;2.50;99.90;;;;;;5053313;28;20305;-67
2023/12/18 02:30:22;;;;;;;30.80;17.83;;;2.50;99.90;;;;;;5053191;28;20763;-67
2023/12/18 02:32:50;;;;;;;31.83;18.17;;;2.50;99.90;;;;;;5053357;28;20210;-67
2023/12/18 02:35:18;;;;;;;38.42;18.55;;;2.50;99.90;;;;;;5053181;28;20295;-67
2023/12/18 02:37:46;;;;;;;35.13;19.23;;;2.60;99.90;;;;;;5053399;28;20287;-67
2023/12/18 02:40:16;;;;;;;38.60;18.10;;;2.60;99.90;;;;;;5053437;28;20252;-68
2023/12/18 02:42:44;;;;;;;35.75;19.27;;;2.60;99.90;;;;;;5045501;28;20218;-68
2023/12/18 02:45:12;;;;;;;54.67;19.33;;;2.60;99.90;;;;;;5052831;28;20647;-67
2023/12/18 02:47:39;;;;;;;38.58;18.38;;;2.60;99.90;;;;;;5052883;28;20232;-67
2023/12/18 02:50:08;;;;;;;52.80;17.70;;;2.60;99.90;;;;;;5051894;28;20202;-67
2023/12/18 02:52:36;;;;;;;37.97;18.42;;;2.50;99.90;;;;;;5052989;28;20636;-68
2023/12/18 02:55:05;;;;;;;52.72;17.77;;;2.40;99.90;;;;;;5052707;28;20662;-67
2023/12/18 02:57:34;;;;;;;65.22;18.83;;;2.40;99.90;;;;;;5052597;28;20275;-68
2023/12/18 03:00:03;;;;;;;39.50;20.50;;;2.40;99.90;;;;;;5052598;28;20201;-67
2023/12/18 03:02:31;;;;;;;33.28;18.40;;;2.40;99.90;;;;;;5052732;28;20751;-68
2023/12/18 03:04:58;;;;;;;61.03;19.55;;;2.40;99.90;;;;;;5052692;28;20234;-68
2023/12/18 03:07:26;;;;;;;62.63;19.58;;;2.40;99.90;;;;;;5052702;28;20248;-68
2023/12/18 03:09:54;;;;;;;92.75;20.77;;;2.40;99.90;;;;;;5052419;28;20226;-68
2023/12/18 03:12:22;;;;;;;49.90;19.27;;;2.40;99.90;;;;;;5052348;28;20241;-68
2023/12/18 03:14:52;;;;;;;36.38;18.70;;;2.50;99.90;;;;;;5052222;28;20765;-68
2023/12/18 03:17:19;;;;;;;36.50;19.73;;;2.50;99.90;;;;;;5052512;28;20325;-68
2023/12/18 03:19:47;;;;;;;39.72;19.50;;;2.50;99.90;;;;;;5052228;28;20240;-67
2023/12/18 03:22:15;;;;;;;34.90;19.45;;;2.50;99.90;;;;;;5052658;28;20230;-68
2023/12/18 03:24:43;;;;;;;41.53;18.48;;;2.50;99.90;;;;;;5052089;28;20660;-68
2023/12/18 03:27:11;;;;;;;42.67;18.90;;;2.50;99.90;;;;;;5052253;28;20283;-68
2023/12/18 03:29:39;;;;;;;56.42;18.30;;;2.50;99.90;;;;;;5052255;28;20202;-68
2023/12/18 03:32:08;;;;;;;38.15;18.13;;;2.40;99.90;;;;;;5052547;28;20290;-68
2023/12/18 03:34:36;;;;;;;38.60;19.10;;;2.40;99.90;;;;;;5052136;28;20292;-67
2023/12/18 03:37:04;;;;;;;40.20;19.38;;;2.40;99.90;;;;;;5052162;28;20253;-67
2023/12/18 03:39:32;;;;;;;32.03;19.13;;;2.30;99.90;;;;;;5051772;28;20229;-67
2023/12/18 03:42:00;;;;;;;39.67;20.27;;;2.40;99.90;;;;;;5052441;28;20213;-68
2023/12/18 03:44:28;;;;;;;38.17;18.95;;;2.40;99.90;;;;;;5051624;28;20785;-68
2023/12/18 03:46:57;;;;;;;39.15;18.13;;;2.40;99.90;;;;;;5052020;28;20226;-67
2023/12/18 03:49:26;;;;;;;39.10;19.25;;;2.40;99.90;;;;;;5051739;28;20209;-68
2023/12/18 03:51:54;;;;;;;35.15;17.67;;;2.40;99.90;;;;;;5052040;28;20206;-68
2023/12/18 03:54:22;;;;;;;32.25;17.35;;;2.40;99.90;;;;;;5051610;28;20206;-68
2023/12/18 03:56:50;;;;;;;36.22;18.42;;;2.40;99.90;;;;;;5051502;28;20237;-68
2023/12/18 03:59:18;;;;;;;52.25;18.65;;;2.40;99.90;;;;;;5051914;28;20645;-67
2023/12/18 04:01:46;;;;;;;35.97;18.92;;;2.40;99.90;;;;;;5043355;28;20206;-68
2023/12/18 04:04:14;;;;;;;36.58;18.98;;;2.40;99.90;;;;;;5051460;28;20317;-68
2023/12/18 04:06:44;;;;;;;37.55;19.58;;;2.40;99.90;;;;;;5051106;28;20225;-68
2023/12/18 04:09:12;;;;;;;46.92;21.38;;;2.40;99.90;;;;;;5051843;28;20205;-68
2023/12/18 04:11:40;;;;;;;66.82;20.02;;;2.40;99.90;;;;;;5051329;28;20217;-67
2023/12/18 04:14:08;;;;;;;48.17;19.67;;;2.40;99.90;;;;;;5051570;28;20505;-67
2023/12/18 04:16:36;;;;;;;34.00;18.38;;;2.40;99.90;;;;;;5051115;28;20313;-67
2023/12/18 04:19:05;;;;;;;60.38;18.90;;;2.40;99.90;;;;;;5051417;28;20726;-68
2023/12/18 04:21:33;;;;;;;52.47;19.73;;;2.40;99.90;;;;;;5051183;28;20797;-67
2023/12/18 04:24:03;;;;;;;36.95;18.98;;;2.40;99.90;;;;;;5051436;28;20284;-68
2023/12/18 04:26:31;;;;;;;37.78;18.58;;;2.40;99.90;;;;;;5050953;28;20703;-68
2023/12/18 04:28:58;;;;;;;44.55;19.23;;;2.50;99.90;;;;;;5051477;28;20650;-67
2023/12/18 04:31:26;;;;;;;35.65;19.05;;;2.50;99.90;;;;;;5051075;28;20202;-67
2023/12/18 04:33:54;;;;;;;35.65;18.58;;;2.40;99.90;;;;;;5051476;28;20224;-68
2023/12/18 04:36:22;;;;;;;35.72;19.65;;;2.40;99.90;;;;;;5050850;28;20260;-66
2023/12/18 04:38:50;;;;;;;36.97;18.77;;;2.40;99.90;;;;;;5051485;28;20290;-68
2023/12/18 04:41:23;;;;;;;55.30;19.73;;;2.40;99.90;;;;;;5050827;28;20198;-68
2023/12/18 04:43:50;;;;;;;37.47;18.30;;;2.40;99.90;;;;;;5051234;28;20702;-68
2023/12/18 04:46:19;;;;;;;79.72;20.02;;;2.40;99.90;;;;;;5050803;28;20257;-68
2023/12/18 04:48:46;;;;;;;55.80;18.30;;;2.40;99.90;;;;;;5051267;28;20214;-67
2023/12/18 04:51:14;;;;;;;67.90;18.45;;;2.40;99.90;;;;;;5050943;28;20217;-67
2023/12/18 04:53:42;;;;;;;67.72;18.70;;;2.30;99.90;;;;;;5051251;28;20280;-67
2023/12/18 04:56:10;;;;;;;42.88;19.63;;;2.30;99.90;;;;;;5050779;28;20198;-68
2023/12/18 04:58:39;;;;;;;39.85;18.63;;;2.30;99.90;;;;;;5050796;28;20267;-67
2023/12/18 05:01:08;;;;;;;39.75;18.13;;;2.30;99.90;;;;;;5050877;28;20202;-68
2023/12/18 05:03:36;;;;;;;47.50;18.83;;;2.30;99.90;;;;;;5050904;28;20687;-68
2023/12/18 05:06:18;;;;;;;38.75;18.88;;;2.30;99.90;;;;;;5050572;28;20256;-68
2023/12/18 05:08:47;;;;;;;37.80;18.90;;;2.30;99.90;;;;;;5050813;28;20749;-68
2023/12/18 05:11:16;;;;;;;37.15;18.38;;;2.40;99.90;;;;;;5050577;28;20241;-68
2023/12/18 05:13:45;;;;;;;51.10;18.58;;;2.40;99.90;;;;;;5052093;28;20214;-68
2023/12/18 05:16:13;;;;;;;47.88;18.50;;;2.50;99.90;;;;;;5054424;28;20253;-67
2023/12/18 05:18:41;;;;;;;32.65;17.98;;;2.50;99.90;;;;;;5052058;28;20206;-68
2023/12/18 05:21:11;;;;;;;44.95;18.88;;;2.50;99.90;;;;;;5050578;28;20205;-68
2023/12/18 05:23:40;;;;;;;45.22;19.05;;;2.50;99.90;;;;;;5052144;28;20208;-67
2023/12/18 05:26:07;;;;;;;81.18;19.00;;;2.50;99.90;;;;;;5051907;28;20211;-68
2023/12/18 05:28:35;;;;;;;50.00;19.02;;;2.50;99.90;;;;;;5050632;28;20733;-68
2023/12/18 05:31:04;;;;;;;36.13;18.67;;;2.40;99.90;;;;;;5054535;28;20380;-68
2023/12/18 05:33:32;;;;;;;57.60;18.58;;;2.50;99.90;;;;;;5054548;28;20287;-67
2023/12/18 05:36:00;;;;;;;46.75;18.13;;;2.50;99.90;;;;;;5051526;28;20241;-66
2023/12/18 05:38:28;;;;;;;44.60;19.42;;;2.50;99.90;;;;;;5053439;28;20644;-68
2023/12/18 05:40:56;;;;;;;43.35;18.25;;;2.50;99.90;;;;;;5054164;28;20293;-68
2023/12/18 05:43:24;;;;;;;37.83;19.17;;;2.50;99.90;;;;;;5054159;28;20651;-68
2023/12/18 05:45:52;;;;;;;42.22;18.98;;;2.50;99.90;;;;;;5053562;28;20249;-67
2023/12/18 05:48:21;;;;;;;37.38;18.95;;;2.50;99.90;;;;;;5053879;28;20222;-68
2023/12/18 05:50:49;;;;;;;39.05;19.75;;;2.50;99.90;;;;;;5052090;28;20214;-68
2023/12/18 05:53:17;;;;;;;41.83;19.55;;;2.50;99.90;;;;;;5052448;28;20729;-67
2023/12/18 05:55:45;;;;;;;41.03;20.33;;;2.60;99.90;;;;;;5053730;28;20206;-67
2023/12/18 05:58:13;;;;;;;53.53;19.80;;;2.60;99.90;;;;;;5054011;28;20225;-68
2023/12/18 06:00:41;;;;;;;53.13;20.52;;;2.60;99.90;;;;;;5053397;28;20202;-68
2023/12/18 06:03:09;;;;;;;53.47;20.35;;;2.60;99.90;;;;;;5053970;28;20206;-68
2023/12/18 06:05:38;;;;;;;50.20;21.35;;;2.50;99.90;;;;;;5053287;28;20267;-68
2023/12/18 06:08:07;;;;;;;112.07;22.33;;;2.50;99.90;;;;;;5054067;28;20325;-68
2023/12/18 06:10:35;;;;;;;42.63;21.50;;;2.50;99.90;;;;;;5053459;28;20264;-68
2023/12/18 06:13:02;;;;;;;40.83;21.33;;;2.50;99.90;;;;;;5053908;28;20256;-67
2023/12/18 06:15:30;;;;;;;52.78;22.92;;;2.50;99.90;;;;;;5053398;28;20224;-68
2023/12/18 06:17:58;;;;;;;40.28;21.67;;;2.50;99.90;;;;;;5050396;28;21035;-68
2023/12/18 06:20:26;;;;;;;60.65;20.85;;;2.50;99.90;;;;;;5053643;28;20236;-68
2023/12/18 06:22:56;;;;;;;62.55;21.38;;;2.50;99.90;;;;;;5053909;28;20202;-68
2023/12/18 06:25:24;;;;;;;56.03;21.50;;;2.50;99.90;;;;;;5053267;28;20313;-68
2023/12/18 06:27:52;;;;;;;39.53;21.73;;;2.50;99.90;;;;;;5052896;28;20222;-68
2023/12/18 06:30:20;;;;;;;52.30;21.70;;;2.50;99.90;;;;;;5052705;28;20206;-68
2023/12/18 06:32:48;;;;;;;43.83;22.88;;;2.60;99.90;;;;;;5053748;28;20206;-68
2023/12/18 06:35:16;;;;;;;62.45;22.42;;;2.60;99.90;;;;;;5053043;28;20237;-67
2023/12/18 06:37:44;;;;;;;52.35;21.27;;;2.60;99.90;;;;;;5053131;28;20226;-68
2023/12/18 06:40:14;;;;;;;74.40;21.42;;;2.60;99.90;;;;;;5053232;28;20237;-67
2023/12/18 06:42:42;;;;;;;39.47;21.10;;;2.50;99.90;;;;;;5053299;28;20202;-68
2023/12/18 06:45:10;;;;;;;61.00;21.90;;;2.50;99.90;;;;;;5052721;28;20222;-67
2023/12/18 06:47:38;;;;;;;66.45;21.67;;;2.50;99.90;;;;;;5053021;28;20221;-68
2023/12/18 06:50:07;;;;;;;52.60;21.23;;;2.50;99.90;;;;;;5052847;28;20734;-67
2023/12/18 06:52:35;;;;;;;47.03;20.55;;;2.50;99.90;;;;;;5053043;28;20218;-68
2023/12/18 06:55:03;;;;;;;35.40;19.73;;;2.50;99.90;;;;;;5052751;28;20210;-68
2023/12/18 06:57:32;;;;;;;41.28;19.00;;;2.50;99.90;;;;;;5052569;28;20233;-67
2023/12/18 07:00:00;;;;;;;42.67;20.08;;;2.50;99.90;;;;;;5052459;28;20213;-72
2023/12/18 07:02:28;;;;;;;43.25;21.90;;;2.50;99.90;;;;;;5053058;28;20625;-72
2023/12/18 07:04:56;;;;;;;39.40;21.08;;;2.50;99.90;;;;;;5052241;28;20603;-72
2023/12/18 07:07:24;;;;;;;48.30;20.40;;;2.60;99.90;;;;;;5052598;28;20214;-72
2023/12/18 07:09:51;;;;;;;51.90;20.20;;;2.60;99.90;;;;;;5051018;28;20660;-72
2023/12/18 07:12:19;;;;;;;37.67;19.63;;;2.60;99.90;;;;;;5052616;28;20574;-72
2023/12/18 07:14:49;;;;;;;29.80;18.40;;;2.60;99.90;;;;;;5052460;28;20293;-72
2023/12/18 07:17:17;;;;;;;56.25;18.63;;;2.60;99.90;;;;;;5052450;28;21054;-72
2023/12/18 07:19:44;;;;;;;32.15;18.33;;;2.50;99.90;;;;;;5052476;28;20726;-72
2023/12/18 07:22:12;;;;;;;31.67;18.40;;;2.50;99.90;;;;;;5052541;28;20202;-72
2023/12/18 07:24:40;;;;;;;39.60;19.10;;;2.50;99.90;;;;;;5052056;28;20717;-72
2023/12/18 07:27:08;;;;;;;33.63;18.17;;;2.50;99.90;;;;;;5051987;28;20226;-72
2023/12/18 07:29:36;;;;;;;34.92;18.67;;;2.50;99.90;;;;;;5052599;28;20206;-72
2023/12/18 07:32:06;;;;;;;38.83;17.23;;;2.60;99.90;;;;;;5052392;28;20285;-71
2023/12/18 07:34:34;;;;;;;30.77;16.33;;;2.60;99.90;;;;;;5052009;28;20766;-72
2023/12/18 07:37:02;;;;;;;46.13;17.77;;;2.60;99.90;;;;;;5051229;28;20703;-71
2023/12/18 07:39:31;;;;;;;29.08;16.63;;;2.50;99.90;;;;;;5052368;28;20202;-71
2023/12/18 07:41:59;;;;;;;33.92;17.25;;;2.50;99.90;;;;;;5052154;28;20290;-72
2023/12/18 07:44:27;;;;;;;39.25;17.13;;;2.50;99.90;;;;;;5052135;28;20218;-72
2023/12/18 07:46:54;;;;;;;28.13;16.95;;;2.50;99.90;;;;;;5051689;28;20313;-72
2023/12/18 07:49:24;;;;;;;33.92;17.92;;;2.50;99.90;;;;;;5052054;28;20255;-72
2023/12/18 07:51:51;;;;;;;36.58;18.65;;;2.40;99.90;;;;;;5051917;28;20578;-71
2023/12/18 07:54:19;;;;;;;56.97;18.88;;;2.40;99.90;;;;;;5051946;28;20251;-71
2023/12/18 07:56:47;;;;;;;64.20;20.55;;;2.40;99.90;;;;;;5051415;28;20221;-72
2023/12/18 07:59:17;;;;;;;41.28;18.80;;;2.40;99.90;;;;;;5051832;28;20660;-72
2023/12/18 08:01:45;;;;;;;55.17;19.23;;;2.40;99.90;;;;;;5051629;28;20213;-72
2023/12/18 08:04:13;;;;;;;34.70;18.65;;;2.40;99.90;;;;;;5051517;28;20672;-72
2023/12/18 08:06:42;;;;;;;32.90;18.77;;;2.40;99.90;;;;;;5051402;28;20261;-72
2023/12/18 08:09:09;;;;;;;31.88;17.40;;;2.40;99.90;;;;;;5051873;28;20198;-72
2023/12/18 08:11:38;;;;;;;57.30;17.73;;;2.40;99.90;;;;;;5051352;28;20224;-72
2023/12/18 08:14:06;;;;;;;27.67;17.30;;;2.40;99.90;;;;;;5051704;28;20202;-71
2023/12/18 08:16:34;;;;;;;26.35;15.68;;;2.40;99.90;;;;;;5051119;28;20218;-71
2023/12/18 08:19:02;;;;;;;32.00;16.45;;;2.40;99.90;;;;;;5051898;28;20351;-72
2023/12/18 08:21:30;;;;;;;46.03;16.92;;;2.40;99.90;;;;;;5051719;28;20293;-72
2023/12/18 08:23:59;;;;;;;30.95;16.88;;;2.40;99.90;;;;;;5051491;28;20213;-72
2023/12/18 08:26:27;;;;;;;25.85;15.90;;;2.40;99.90;;;;;;5051185;28;20290;-71
2023/12/18 08:28:55;;;;;;;38.72;17.15;;;2.40;99.90;;;;;;5051461;28;20210;-72
2023/12/18 08:31:23;;;;;;;36.35;15.50;;;2.40;99.90;;;;;;5051216;28;20264;-71
2023/12/18 08:33:51;;;;;;;40.63;15.95;;;2.30;99.90;;;;;;5051266;28;20634;-71
2023/12/18 08:36:19;;;;;;;28.17;16.02;;;2.20;99.90;;;;;;5051367;28;20218;-72
2023/12/18 08:38:47;;;;;;;34.35;16.33;;;2.30;99.90;;;;;;5051120;28;20210;-72
2023/12/18 08:41:16;;;;;;;29.83;16.70;;;2.30;99.90;;;;;;5049316;28;20256;-69
2023/12/18 08:43:44;;;;;;;36.83;16.88;;;2.30;99.90;;;;;;5044422;28;21100;-69
2023/12/18 08:46:25;;;;;;;29.40;16.60;;;2.30;99.90;;;;;;5048648;28;20705;-69
2023/12/18 08:48:53;;;;;;;31.10;16.08;;;2.40;99.90;;;;;;5050767;28;20680;-69
2023/12/18 08:51:21;;;;;;;28.40;16.25;;;2.30;99.90;;;;;;5051833;28;20205;-69
2023/12/18 08:53:49;;;;;;;26.25;16.30;;;2.30;99.90;;;;;;5050907;28;20686;-70
2023/12/18 08:56:18;;;;;;;46.17;17.70;;;2.40;99.90;;;;;;5054892;28;20229;-69
2023/12/18 08:58:46;;;;;;;35.92;17.27;;;2.40;99.90;;;;;;5055111;28;20220;-70
2023/12/18 09:01:14;;;;;;;30.90;15.57;;;2.40;99.90;;;;;;5054940;28;20240;-70
2023/12/18 09:03:42;;;;;;;24.88;15.45;;;2.40;99.90;;;;;;5054928;28;20263;-70
2023/12/18 09:06:10;;;;;;;31.67;15.43;;;2.40;99.90;;;;;;5054778;28;20230;-69
2023/12/18 09:08:40;;;;;;;22.33;14.45;;;2.40;99.90;;;;;;5052425;28;20209;-69
2023/12/18 09:11:08;;;;;;;30.65;16.10;;;2.40;99.90;;;;;;5054378;28;20243;-70
2023/12/18 09:13:37;;;;;;;29.83;15.60;;;2.40;99.90;;;;;;5054978;28;20252;-69
2023/12/18 09:16:05;;;;;;;26.98;14.90;;;2.40;99.90;;;;;;5046693;28;20256;-69
2023/12/18 09:18:33;;;;;;;31.10;15.95;;;2.40;99.90;;;;;;5055047;28;20663;-69
2023/12/18 09:21:01;;;;;;;28.02;15.50;;;2.40;99.90;;;;;;5052450;28;20583;-70
2023/12/18 09:23:29;;;;;;;48.58;16.60;;;2.40;99.90;;;;;;5054821;28;20285;-70
2023/12/18 09:25:57;;;;;;;26.30;16.42;;;2.30;99.90;;;;;;5052485;28;20229;-70
2023/12/18 09:28:25;;;;;;;36.45;16.40;;;2.40;99.90;;;;;;5054245;28;20727;-69
2023/12/18 09:30:54;;;;;;;27.63;16.23;;;2.40;99.90;;;;;;5054182;28;20194;-69
2023/12/18 09:33:22;;;;;;;35.45;16.27;;;2.40;99.90;;;;;;5054584;28;20202;-70
2023/12/18 09:35:50;;;;;;;51.78;17.20;;;2.40;99.90;;;;;;5053797;28;20283;-69
2023/12/18 09:38:19;;;;;;;32.78;16.48;;;2.40;99.90;;;;;;5054500;28;20615;-69
2023/12/18 09:40:47;;;;;;;30.58;17.83;;;2.40;99.90;;;;;;5054120;28;20276;-70
2023/12/18 09:43:16;;;;;;;36.42;18.30;;;2.50;99.90;;;;;;5054060;28;20718;-70
2023/12/18 09:45:46;;;;;;;29.58;16.35;;;2.50;99.90;;;;;;5053815;28;20237;-70
2023/12/18 09:48:16;;;;;;;30.25;16.15;;;2.50;99.90;;;;;;5053228;28;20232;-70
2023/12/18 09:50:46;;;;;;;28.80;16.75;;;2.60;99.90;;;;;;5053988;28;20205;-69
2023/12/18 09:53:17;;;;;;;29.98;17.58;;;2.60;99.90;;;;;;5054418;28;20212;-69
2023/12/18 09:55:45;;;;;;;36.22;19.23;;;2.70;99.90;;;;;;5053849;28;20198;-70
2023/12/18 09:58:14;;;;;;;33.38;18.38;;;2.70;99.90;;;;;;5054342;28;20213;-70
2023/12/18 10:00:42;;;;;;;38.20;19.95;;;2.70;99.90;;;;;;5053390;28;20248;-70
2023/12/18 10:03:13;;;;;;;34.33;19.70;;;2.80;99.90;;;;;;5053429;28;20210;-69
2023/12/18 10:05:43;;;;;;;32.25;19.30;;;2.80;99.90;;;;;;5052329;28;20206;-70
2023/12/18 10:08:10;;;;;;;38.40;19.80;;;2.80;99.90;;;;;;5053957;28;20699;-69
2023/12/18 10:10:38;;;;;;;42.60;21.25;;;2.80;99.90;;;;;;5054065;28;20287;-69
2023/12/18 10:13:08;;;;;;;34.70;20.85;;;2.80;99.90;;;;;;5054195;28;20308;-69
2023/12/18 10:15:38;;;;;;;33.45;18.58;;;2.90;99.90;;;;;;5053706;28;20233;-70
2023/12/18 10:18:06;;;;;;;37.45;18.58;;;2.90;99.90;;;;;;5053670;28;20233;-69
2023/12/18 10:20:34;;;;;;;27.92;16.52;;;2.80;99.90;;;;;;5053887;28;20285;-69
2023/12/18 10:23:04;;;;;;;32.58;18.17;;;2.80;99.90;;;;;;5053895;28;20646;-70
2023/12/18 10:25:32;;;;;;;24.75;16.42;;;2.80;99.90;;;;;;5053570;28;20655;-70
2023/12/18 10:28:00;;;;;;;30.38;17.63;;;2.80;99.90;;;;;;5053869;28;20311;-69
2023/12/18 10:30:29;;;;;;;27.83;16.40;;;2.80;99.90;;;;;;5053981;28;20237;-69
2023/12/18 10:32:59;;;;;;;27.30;16.92;;;2.90;99.90;;;;;;5053734;28;20267;-70
2023/12/18 10:35:28;;;;;;;36.08;16.88;;;2.90;99.90;;;;;;5053722;28;20245;-69
2023/12/18 10:37:56;;;;;;;33.15;16.80;;;2.90;99.90;;;;;;5053462;28;20276;-69
2023/12/18 10:40:26;;;;;;;27.70;17.08;;;2.90;99.90;;;;;;5053143;28;20590;-69
2023/12/18 10:43:01;;;;;;;31.48;17.98;;;2.90;99.90;;;;;;5053414;28;20688;-69
2023/12/18 10:45:29;;;;;;;29.50;16.55;;;2.90;99.90;;;;;;5053179;28;20194;-70
2023/12/18 10:47:57;;;;;;;28.30;17.08;;;2.90;99.90;;;;;;5053306;28;20225;-69
2023/12/18 10:50:24;;;;;;;25.67;15.75;;;3.00;99.90;;;;;;5053208;28;20206;-70
2023/12/18 10:52:52;;;;;;;23.92;15.20;;;3.00;99.90;;;;;;5053099;28;20214;-70
2023/12/18 10:55:20;;;;;;;27.52;16.42;;;3.00;99.90;;;;;;5052978;28;20252;-70
2023/12/18 10:57:50;;;;;;;27.75;16.63;;;3.00;99.90;;;;;;5052608;28;20226;-70
2023/12/18 11:00:18;;;;;;;25.50;16.58;;;3.00;99.90;;;;;;5052984;28;20234;-69
2023/12/18 11:02:46;;;;;;;27.20;15.50;;;3.00;99.90;;;;;;5053037;28;20649;-70
2023/12/18 11:05:14;;;;;;;32.63;17.17;;;3.00;99.90;;;;;;5052487;28;20206;-69
2023/12/18 11:07:42;;;;;;;30.23;16.65;;;3.10;99.90;;;;;;5052971;28;20221;-70
2023/12/18 11:10:10;;;;;;;24.73;16.27;;;3.10;99.90;;;;;;5052678;28;20209;-70
2023/12/18 11:12:40;;;;;;;27.50;16.83;;;3.10;99.90;;;;;;5052100;28;20204;-70
2023/12/18 11:15:12;;;;;;;27.80;16.98;;;3.10;99.90;;;;;;5052427;28;20212;-70
2023/12/18 11:17:42;;;;;;;31.95;18.13;;;3.10;99.90;;;;;;5052715;28;20222;-70
2023/12/18 11:20:19;;;;;;;33.03;17.33;;;3.10;99.90;;;;;;5044569;28;20206;-70
2023/12/18 11:22:48;;;;;;;30.05;17.98;;;3.20;99.90;;;;;;5052683;28;20198;-70
2023/12/18 11:25:16;;;;;;;33.47;19.40;;;3.20;99.90;;;;;;5052041;28;20259;-69
2023/12/18 11:27:43;;;;;;;36.92;20.45;;;3.20;99.90;;;;;;5052288;28;20230;-70
2023/12/18 11:30:31;;;;;;;37.53;22.70;;;3.20;99.90;;;;;;5044325;28;20206;-70
2023/12/18 11:33:03;;;;;;;35.35;21.80;;;3.30;99.90;;;;;;5052690;28;20205;-70
2023/12/18 11:35:31;;;;;;;37.92;21.30;;;3.30;99.90;;;;;;5051703;28;20206;-70
2023/12/18 11:38:06;;;;;;;36.17;23.15;;;3.20;99.90;;;;;;5051820;28;20224;-70
2023/12/18 11:40:36;;;;;;;36.03;20.63;;;3.20;99.90;;;;;;5044261;28;20207;-70
2023/12/18 11:43:04;;;;;;;38.42;21.83;;;3.20;99.90;;;;;;5052255;28;20617;-70
2023/12/18 11:45:36;;;;;;;32.22;20.27;;;3.20;99.90;;;;;;5052410;28;20202;-69
2023/12/18 11:48:05;;;;;;;38.13;22.17;;;3.20;99.90;;;;;;5052104;28;20264;-69
2023/12/18 11:50:35;;;;;;;36.38;22.23;;;3.20;99.90;;;;;;5052012;28;20208;-69
2023/12/18 11:53:07;;;;;;;38.88;23.00;;;3.20;99.90;;;;;;5052172;28;20209;-69
2023/12/18 11:55:42;;;;;;;36.22;21.13;;;3.20;99.90;;;;;;5051777;28;20214;-70
2023/12/18 11:58:14;;;;;;;38.08;23.55;;;3.20;99.90;;;;;;5051963;28;20222;-70
2023/12/18 12:00:44;;;;;;;38.55;23.02;;;3.20;99.90;;;;;;5050703;28;20666;-70
2023/12/18 12:03:13;;;;;;;36.15;22.10;;;3.30;99.90;;;;;;5043994;28;20202;-70
2023/12/18 12:05:41;;;;;;;36.10;22.05;;;3.30;99.90;;;;;;5049735;28;20215;-69
2023/12/18 12:08:09;;;;;;;39.50;23.58;;;3.30;99.90;;;;;;5051194;28;20604;-70
2023/12/18 12:10:41;;;;;;;35.30;22.55;;;3.30;99.90;;;;;;5051186;28;20694;-69
2023/12/18 12:13:16;;;;;;;34.55;22.20;;;3.30;99.90;;;;;;5051641;28;20285;-69
2023/12/18 12:15:53;;;;;;;39.00;23.13;;;3.40;99.90;;;;;;5051236;28;20229;-70
2023/12/18 12:18:21;;;;;;;36.42;21.90;;;3.40;99.90;;;;;;5044039;28;20795;-70
2023/12/18 12:20:49;;;;;;;38.30;22.58;;;3.40;99.90;;;;;;5051394;28;20210;-69
2023/12/18 12:23:17;;;;;;;34.50;21.67;;;3.40;99.90;;;;;;5051588;28;20344;-69
2023/12/18 12:25:46;;;;;;;38.08;22.85;;;3.40;99.90;;;;;;5050909;28;20235;-69
2023/12/18 12:28:15;;;;;;;36.65;22.58;;;3.40;99.90;;;;;;5042799;28;20233;-70
2023/12/18 12:30:43;;;;;;;34.80;22.13;;;3.40;99.90;;;;;;5051123;28;20210;-70
2023/12/18 12:33:12;;;;;;;34.97;21.38;;;3.40;99.90;;;;;;5051517;28;20202;-70
2023/12/18 12:35:42;;;;;;;35.78;22.38;;;3.40;99.90;;;;;;5050971;28;20247;-70
2023/12/18 12:38:09;;;;;;;37.58;22.20;;;3.40;99.90;;;;;;5051155;28;20273;-69
2023/12/18 12:40:42;;;;;;;37.13;21.83;;;3.40;99.90;;;;;;5051002;28;20291;-70
2023/12/18 12:43:10;;;;;;;40.55;23.05;;;3.40;99.90;;;;;;5051136;28;20508;-69
2023/12/18 12:45:39;;;;;;;39.17;22.77;;;3.30;99.90;;;;;;5050307;28;20194;-69